createdAt,value
2022-10-30T00:02:22.355Z,101038.03
2022-10-30T00:04:48.877Z,101046.00
2022-10-30T00:07:15.250Z,101046.97
2022-10-30T00:09:41.663Z,101038.28
2022-10-30T00:12:08.097Z,101050.59
2022-10-30T00:14:34.612Z,101039.25
2022-10-30T00:17:01.025Z,101041.81
2022-10-30T00:19:27.439Z,101047.91
2022-10-30T00:24:21.007Z,101046.34
2022-10-30T00:26:48.072Z,101047.22
2022-10-30T00:29:14.581Z,101049.94
2022-10-30T00:31:41.339Z,101042.91
2022-10-30T00:34:07.791Z,101045.56
2022-10-30T00:36:34.199Z,101047.28
2022-10-30T00:39:00.627Z,101043.00
2022-10-30T00:41:27.191Z,101043.84
2022-10-30T00:43:53.653Z,101048.38
2022-10-30T00:46:39.098Z,101037.91
2022-10-30T00:49:16.633Z,101033.72
2022-10-30T00:51:50.552Z,101039.94
2022-10-30T00:54:18.812Z,101035.78
2022-10-30T00:56:48.810Z,101040.50
2022-10-30T00:59:20.270Z,101035.22
2022-10-30T01:01:47.922Z,101039.56
2022-10-30T01:04:16.814Z,101041.38
2022-10-30T01:06:48.274Z,101045.03
2022-10-30T01:09:15.865Z,101035.22
2022-10-30T01:11:42.368Z,101039.47
2022-10-30T01:14:11.046Z,101045.75
2022-10-30T01:16:55.767Z,101043.88
2022-10-30T01:19:22.155Z,101043.75
2022-10-30T01:22:06.858Z,101049.03
2022-10-30T01:25:07.141Z,101042.97
2022-10-30T01:28:18.164Z,101042.25
2022-10-30T01:31:04.726Z,101050.97
2022-10-30T01:33:49.840Z,101039.69
2022-10-30T01:36:33.365Z,101052.06
2022-10-30T01:39:07.692Z,101050.41
2022-10-30T01:41:34.139Z,101046.91
2022-10-30T01:44:07.520Z,101043.47
2022-10-30T01:46:52.285Z,101042.78
2022-10-30T01:49:43.660Z,101049.94
2022-10-30T01:52:27.884Z,101041.19
2022-10-30T01:55:12.581Z,101044.78
2022-10-30T01:57:59.662Z,101031.63
2022-10-30T02:00:27.333Z,101042.91
2022-10-30T02:02:54.337Z,101039.41
2022-10-30T02:05:37.768Z,101040.31
2022-10-30T02:08:04.659Z,101043.34
2022-10-30T02:10:33.189Z,101031.94
2022-10-30T02:12:59.825Z,101035.56
2022-10-30T02:15:26.478Z,101025.88
2022-10-30T02:17:54.469Z,101024.09
2022-10-30T02:20:21.031Z,101024.47
2022-10-30T02:22:48.091Z,101029.00
2022-10-30T02:25:15.234Z,101012.41
2022-10-30T02:27:42.227Z,101021.41
2022-10-30T02:30:09.209Z,101021.63
2022-10-30T02:32:35.730Z,101025.22
2022-10-30T02:35:02.156Z,101038.34
2022-10-30T02:37:28.658Z,101042.06
2022-10-30T02:39:55.151Z,101039.38
2022-10-30T02:42:23.138Z,101041.03
2022-10-30T02:44:49.710Z,101028.69
2022-10-30T02:47:16.193Z,101029.59
2022-10-30T02:49:42.585Z,101026.38
2022-10-30T02:52:09.066Z,101017.53
2022-10-30T02:54:35.899Z,101019.53
2022-10-30T02:57:02.407Z,101022.25
2022-10-30T02:59:29.578Z,101016.69
2022-10-30T03:01:56.055Z,101023.78
2022-10-30T03:04:22.538Z,101028.56
2022-10-30T03:06:48.960Z,101036.47
2022-10-30T03:09:15.369Z,101033.91
2022-10-30T03:11:41.999Z,101033.19
2022-10-30T03:14:08.494Z,101032.44
2022-10-30T03:16:36.550Z,101031.41
2022-10-30T03:19:04.345Z,101029.50
2022-10-30T03:21:30.829Z,101035.63
2022-10-30T03:23:57.282Z,101043.56
2022-10-30T03:26:23.766Z,101048.97
2022-10-30T03:28:50.366Z,101041.22
2022-10-30T03:31:19.070Z,101037.84
2022-10-30T03:33:45.735Z,101044.81
2022-10-30T03:36:13.840Z,101040.59
2022-10-30T03:38:40.274Z,101041.66
2022-10-30T03:41:07.037Z,101040.66
2022-10-30T03:43:33.789Z,101039.22
2022-10-30T03:46:00.369Z,101045.16
2022-10-30T03:48:28.528Z,101051.41
2022-10-30T03:50:56.572Z,101054.19
2022-10-30T03:53:26.059Z,101051.59
2022-10-30T03:55:53.531Z,101046.34
2022-10-30T03:58:19.975Z,101043.81
2022-10-30T04:00:46.365Z,101052.50
2022-10-30T04:03:12.770Z,101058.69
2022-10-30T04:05:39.171Z,101054.31
2022-10-30T04:08:10.837Z,101053.69
2022-10-30T04:10:45.897Z,101057.22
2022-10-30T04:13:15.377Z,101058.09
2022-10-30T04:15:42.300Z,101072.31
2022-10-30T04:18:13.818Z,101062.59
2022-10-30T04:20:40.281Z,101067.94
2022-10-30T04:23:10.407Z,101063.44
2022-10-30T04:25:36.855Z,101066.84
2022-10-30T04:28:03.469Z,101069.56
2022-10-30T04:30:35.126Z,101066.16
2022-10-30T04:33:03.525Z,101072.38
2022-10-30T04:35:33.297Z,101066.47
2022-10-30T04:38:02.015Z,101069.00
2022-10-30T04:40:31.578Z,101070.50
2022-10-30T04:42:58.790Z,101068.66
2022-10-30T04:45:26.082Z,101070.63
2022-10-30T04:47:53.172Z,101066.94
2022-10-30T04:50:19.812Z,101061.88
2022-10-30T04:52:46.265Z,101055.84
2022-10-30T04:55:12.732Z,101054.88
2022-10-30T04:57:39.204Z,101051.38
2022-10-30T05:00:07.810Z,101048.66
2022-10-30T05:02:37.619Z,101045.34
2022-10-30T05:05:04.656Z,101050.50
2022-10-30T05:07:31.380Z,101051.41
2022-10-30T05:09:57.778Z,101054.06
2022-10-30T05:12:24.181Z,101046.44
2022-10-30T05:14:50.651Z,101045.75
2022-10-30T05:17:17.138Z,101046.59
2022-10-30T05:19:43.558Z,101038.88
2022-10-30T05:22:10.432Z,101037.16
2022-10-30T05:24:36.894Z,101018.72
2022-10-30T05:27:03.474Z,101031.91
2022-10-30T05:29:29.909Z,101033.00
2022-10-30T05:31:56.363Z,101032.16
2022-10-30T05:34:22.796Z,101027.69
2022-10-30T05:36:49.252Z,101019.63
2022-10-30T05:39:15.666Z,101023.19
2022-10-30T05:41:42.085Z,101027.00
2022-10-30T05:44:08.506Z,101017.34
2022-10-30T05:46:34.972Z,101012.16
2022-10-30T05:49:01.449Z,101014.03
2022-10-30T05:51:27.996Z,101006.00
2022-10-30T05:53:54.430Z,101011.25
2022-10-30T05:56:20.839Z,101007.75
2022-10-30T05:58:50.118Z,101020.03
2022-10-30T06:01:17.328Z,101013.69
2022-10-30T06:03:44.107Z,101020.88
2022-10-30T06:06:10.843Z,101026.13
2022-10-30T06:08:37.625Z,101028.00
2022-10-30T06:11:04.074Z,101029.09
2022-10-30T06:13:30.478Z,101030.06
2022-10-30T06:15:57.141Z,101029.25
2022-10-30T06:18:23.807Z,101034.47
2022-10-30T06:20:50.283Z,101036.09
2022-10-30T06:23:16.825Z,101035.34
2022-10-30T06:25:43.401Z,101039.78
2022-10-30T06:28:11.515Z,101035.25
2022-10-30T06:30:38.095Z,101040.38
2022-10-30T06:33:05.365Z,101036.06
2022-10-30T06:35:31.842Z,101044.78
2022-10-30T06:38:00.119Z,101038.72
2022-10-30T06:40:27.829Z,101046.56
2022-10-30T06:42:54.566Z,101051.03
2022-10-30T06:45:23.577Z,101045.03
2022-10-30T06:47:50.309Z,101045.72
2022-10-30T06:50:19.092Z,101051.03
2022-10-30T06:52:45.547Z,101058.94
2022-10-30T06:55:12.777Z,101052.75
2022-10-30T06:57:39.373Z,101056.22
2022-10-30T07:00:07.305Z,101061.47
2022-10-30T07:02:34.266Z,101056.22
2022-10-30T07:05:00.778Z,101058.72
2022-10-30T07:07:27.220Z,101060.44
2022-10-30T07:09:53.648Z,101060.53
2022-10-30T07:12:20.338Z,101059.56
2022-10-30T07:14:46.718Z,101051.72
2022-10-30T07:17:13.113Z,101060.41
2022-10-30T07:22:20.271Z,101049.09
2022-10-30T07:24:46.664Z,101053.38
2022-10-30T07:27:13.067Z,101054.97
2022-10-30T07:29:39.466Z,101056.75
2022-10-30T07:32:05.875Z,101060.97
2022-10-30T07:34:32.455Z,101054.91
2022-10-30T07:36:58.903Z,101054.00
2022-10-30T07:39:25.310Z,101053.88
2022-10-30T07:41:51.703Z,101055.53
2022-10-30T07:44:18.279Z,101051.19
2022-10-30T07:46:44.776Z,101051.84
2022-10-30T07:49:11.224Z,101054.44
2022-10-30T07:51:38.138Z,101054.31
2022-10-30T07:54:04.571Z,101055.19
2022-10-30T07:56:31.054Z,101047.19
2022-10-30T07:58:57.593Z,101051.50
2022-10-30T08:01:24.083Z,101049.66
2022-10-30T08:03:50.668Z,101057.41
2022-10-30T08:06:20.063Z,101054.66
2022-10-30T08:08:49.480Z,101050.13
2022-10-30T08:11:15.884Z,101049.13
2022-10-30T08:13:42.275Z,101055.09
2022-10-30T08:16:08.718Z,101047.97
2022-10-30T08:18:35.389Z,101050.47
2022-10-30T08:21:01.882Z,101045.94
2022-10-30T08:23:28.289Z,101043.94
2022-10-30T08:26:00.181Z,101040.34
2022-10-30T08:28:31.597Z,101039.34
2022-10-30T08:31:00.645Z,101040.94
2022-10-30T08:33:27.050Z,101039.84
2022-10-30T08:35:56.613Z,101036.22
2022-10-30T08:38:23.816Z,101033.38
2022-10-30T08:40:50.246Z,101033.00
2022-10-30T08:43:16.819Z,101028.38
2022-10-30T08:45:43.454Z,101024.53
2022-10-30T08:48:15.425Z,101023.66
2022-10-30T08:50:42.377Z,101018.31
2022-10-30T08:53:11.967Z,101031.34
2022-10-30T08:55:38.474Z,101033.84
2022-10-30T08:58:04.940Z,101029.53
2022-10-30T09:00:31.468Z,101031.59
2022-10-30T09:02:58.378Z,101018.47
2022-10-30T09:05:25.369Z,101018.31
2022-10-30T09:08:01.142Z,101020.03
2022-10-30T09:10:28.397Z,101023.31
2022-10-30T09:12:59.160Z,101020.41
2022-10-30T09:15:26.531Z,101020.41
2022-10-30T09:18:01.598Z,101015.84
2022-10-30T09:20:29.500Z,101008.69
2022-10-30T09:22:56.625Z,101003.81
2022-10-30T09:25:23.368Z,101008.97
2022-10-30T09:27:49.784Z,100999.97
2022-10-30T09:30:16.322Z,100999.59
2022-10-30T09:32:42.808Z,100996.53
2022-10-30T09:35:10.316Z,100993.59
2022-10-30T09:37:37.971Z,100992.47
2022-10-30T09:40:05.597Z,100985.19
2022-10-30T09:42:44.632Z,100993.09
2022-10-30T09:45:33.962Z,100995.59
2022-10-30T09:48:19.418Z,100994.63
2022-10-30T09:51:04.025Z,100993.88
2022-10-30T09:53:30.480Z,100993.03
2022-10-30T09:56:08.419Z,100991.00
2022-10-30T09:58:47.046Z,100995.59
2022-10-30T10:01:22.803Z,100991.06
2022-10-30T10:04:06.163Z,100998.56
2022-10-30T10:06:34.463Z,100990.03
2022-10-30T10:09:06.338Z,100991.22
2022-10-30T10:11:37.096Z,100988.75
2022-10-30T10:14:13.991Z,100995.50
2022-10-30T10:16:43.358Z,100998.56
2022-10-30T10:19:30.201Z,100999.34
2022-10-30T10:22:01.844Z,100990.72
2022-10-30T10:24:30.906Z,100994.78
2022-10-30T10:27:06.410Z,100989.00
2022-10-30T10:30:25.634Z,100992.28
2022-10-30T10:33:33.471Z,100991.28
2022-10-30T10:36:20.112Z,100987.03
2022-10-30T10:38:52.492Z,100991.06
2022-10-30T10:41:39.701Z,100983.16
2022-10-30T10:44:21.339Z,100986.28
2022-10-30T10:47:08.622Z,100990.22
2022-10-30T10:49:40.164Z,100988.03
2022-10-30T10:52:16.021Z,100981.69
2022-10-30T10:54:44.764Z,100982.75
2022-10-30T10:57:33.530Z,100983.84
2022-10-30T11:00:08.557Z,100986.59
2022-10-30T11:03:07.395Z,100976.91
2022-10-30T11:05:56.981Z,100973.72
2022-10-30T11:08:27.414Z,100978.31
2022-10-30T11:11:05.187Z,100972.63
2022-10-30T11:13:41.416Z,100974.63
2022-10-30T11:16:26.508Z,100964.81
2022-10-30T11:18:59.733Z,100972.13
2022-10-30T11:21:29.278Z,100969.31
2022-10-30T11:23:55.690Z,100961.88
2022-10-30T11:26:22.270Z,100965.47
2022-10-30T11:29:13.932Z,100968.03
2022-10-30T11:31:44.665Z,100956.59
2022-10-30T11:34:17.952Z,100958.63
2022-10-30T11:36:49.818Z,100961.25
2022-10-30T11:39:30.356Z,100948.03
2022-10-30T11:42:03.311Z,100955.66
2022-10-30T11:44:42.574Z,100958.72
2022-10-30T11:47:11.774Z,100952.03
2022-10-30T11:49:52.863Z,100949.47
2022-10-30T11:52:22.542Z,100950.09
2022-10-30T11:54:54.362Z,100952.91
2022-10-30T11:57:37.095Z,100941.75
2022-10-30T12:00:08.106Z,100941.03
2022-10-30T12:02:43.887Z,100950.19
2022-10-30T12:05:25.584Z,100945.88
2022-10-30T12:07:53.325Z,100945.03
2022-10-30T12:10:27.664Z,100938.00
2022-10-30T12:12:54.484Z,100938.53
2022-10-30T12:15:25.554Z,100938.38
2022-10-30T12:18:00.255Z,100940.41
2022-10-30T12:20:28.271Z,100926.09
2022-10-30T12:22:55.529Z,100941.28
2022-10-30T12:25:32.124Z,100925.66
2022-10-30T12:28:07.978Z,100935.91
2022-10-30T12:30:49.767Z,100945.00
2022-10-30T12:33:23.023Z,100942.06
2022-10-30T12:35:59.250Z,100938.75
2022-10-30T12:38:30.003Z,100941.78
2022-10-30T12:41:05.812Z,100934.78
2022-10-30T12:43:36.348Z,100929.66
2022-10-30T12:46:35.919Z,100939.06
2022-10-30T12:49:32.328Z,100926.28
2022-10-30T12:52:05.417Z,100924.22
2022-10-30T12:54:58.234Z,100928.63
2022-10-30T12:57:28.693Z,100931.66
2022-10-30T13:00:14.638Z,100924.03
2022-10-30T13:03:01.261Z,100925.44
2022-10-30T13:08:41.581Z,100923.72
2022-10-30T13:11:28.594Z,100920.13
2022-10-30T13:14:00.088Z,100912.63
2022-10-30T13:16:29.606Z,100915.06
2022-10-30T13:18:58.084Z,100904.97
2022-10-30T13:21:30.865Z,100912.69
2022-10-30T13:24:03.282Z,100914.94
2022-10-30T13:26:42.377Z,100906.41
2022-10-30T13:29:17.876Z,100909.22
2022-10-30T13:32:11.425Z,100902.09
2022-10-30T13:34:46.183Z,100905.75
2022-10-30T13:37:42.164Z,100900.97
2022-10-30T13:40:27.864Z,100906.69
2022-10-30T13:43:02.247Z,100902.56
2022-10-30T13:45:55.070Z,100899.25
2022-10-30T13:48:37.059Z,100904.06
2022-10-30T13:51:28.041Z,100904.56
2022-10-30T13:54:37.789Z,100901.41
2022-10-30T13:57:25.062Z,100904.22
2022-10-30T14:00:14.618Z,100909.72
2022-10-30T14:02:47.280Z,100909.03
2022-10-30T14:05:38.618Z,100910.06
2022-10-30T14:08:13.958Z,100909.41
2022-10-30T14:10:40.313Z,100908.53
2022-10-30T14:13:44.686Z,100914.91
2022-10-30T14:16:37.406Z,100915.91
2022-10-30T14:19:12.553Z,100914.28
2022-10-30T14:21:54.969Z,100911.69
2022-10-30T14:27:05.561Z,100905.75
2022-10-30T14:29:35.510Z,100912.06
2022-10-30T14:32:11.782Z,100902.38
2022-10-30T14:34:42.484Z,100897.19
2022-10-30T14:37:09.857Z,100896.28
2022-10-30T14:39:43.992Z,100894.56
2022-10-30T14:42:10.345Z,100895.56
2022-10-30T14:45:16.856Z,100893.06
2022-10-30T14:47:59.725Z,100902.81
2022-10-30T14:50:26.082Z,100906.50
2022-10-30T14:52:52.988Z,100904.88
2022-10-30T14:55:26.462Z,100905.94
2022-10-30T14:57:54.276Z,100902.41
2022-10-30T15:00:23.621Z,100901.72
2022-10-30T15:03:12.054Z,100900.13
2022-10-30T15:05:58.703Z,100900.31
2022-10-30T15:08:51.335Z,100900.47
2022-10-30T15:11:37.495Z,100905.09
2022-10-30T15:14:21.455Z,100904.31
2022-10-30T15:16:59.169Z,100910.56
2022-10-30T15:19:25.945Z,100908.16
2022-10-30T15:21:54.745Z,100903.84
2022-10-30T15:24:32.180Z,100909.25
2022-10-30T15:27:00.972Z,100914.69
2022-10-30T15:29:33.300Z,100915.63
2022-10-30T15:32:17.927Z,100915.72
2022-10-30T15:34:55.548Z,100914.03
2022-10-30T15:37:22.843Z,100916.81
2022-10-30T15:39:49.357Z,100926.69
2022-10-30T15:42:16.406Z,100936.47
2022-10-30T15:44:45.569Z,100935.59
2022-10-30T15:47:17.278Z,100935.69
2022-10-30T15:49:55.107Z,100942.03
2022-10-30T15:52:27.991Z,100941.22
2022-10-30T15:55:07.670Z,100946.78
2022-10-30T16:00:31.551Z,100963.16
2022-10-30T16:03:15.986Z,100964.16
2022-10-30T16:05:42.786Z,100966.09
2022-10-30T16:08:22.903Z,100962.75
2022-10-30T16:10:53.048Z,100969.13
2022-10-30T16:13:25.051Z,100975.44
2022-10-30T16:15:51.574Z,100971.19
2022-10-30T16:18:31.484Z,100974.88
2022-10-30T16:21:02.913Z,100976.84
2022-10-30T16:23:30.442Z,100982.34
2022-10-30T16:25:59.213Z,100992.16
2022-10-30T16:28:35.016Z,100998.50
2022-10-30T16:31:15.926Z,100992.59
2022-10-30T16:33:44.574Z,100993.56
2022-10-30T16:36:17.003Z,100992.78
2022-10-30T16:38:46.945Z,101001.72
2022-10-30T16:41:13.789Z,101001.06
2022-10-30T16:43:44.567Z,101006.44
2022-10-30T16:46:14.156Z,101011.13
2022-10-30T16:48:46.420Z,101020.00
2022-10-30T16:51:17.915Z,101027.94
2022-10-30T16:53:48.815Z,101034.31
2022-10-30T16:56:23.983Z,101041.59
2022-10-30T16:58:52.329Z,101046.19
2022-10-30T17:01:24.025Z,101040.22
2022-10-30T17:03:50.710Z,101049.22
2022-10-30T17:06:35.309Z,101049.34
2022-10-30T17:09:10.846Z,101057.53
2022-10-30T17:11:41.996Z,101065.53
2022-10-30T17:14:22.422Z,101046.69
2022-10-30T17:16:57.890Z,101053.03
2022-10-30T17:19:30.354Z,101075.03
2022-10-30T17:22:03.929Z,101070.00
2022-10-30T17:24:35.907Z,101080.66
2022-10-30T17:27:05.690Z,101078.16
2022-10-30T17:29:38.098Z,101088.94
2022-10-30T17:32:06.518Z,101089.03
2022-10-30T17:34:38.994Z,101088.09
2022-10-30T17:37:05.406Z,101100.44
2022-10-30T17:39:31.870Z,101107.59
2022-10-30T17:41:58.261Z,101113.84
2022-10-30T17:44:26.327Z,101107.78
2022-10-30T17:46:54.613Z,101118.44
2022-10-30T17:49:30.199Z,101120.00
2022-10-30T17:51:57.115Z,101128.19
2022-10-30T17:54:24.002Z,101127.41
2022-10-30T17:56:50.508Z,101126.59
2022-10-30T17:59:17.111Z,101125.56
2022-10-30T18:01:43.680Z,101134.63
2022-10-30T18:04:20.926Z,101135.56
2022-10-30T18:06:48.447Z,101133.19
2022-10-30T18:09:15.088Z,101130.56
2022-10-30T18:11:41.504Z,101130.50
2022-10-30T18:14:10.443Z,101128.72
2022-10-30T18:16:36.914Z,101127.88
2022-10-30T18:19:03.363Z,101137.94
2022-10-30T18:21:31.241Z,101143.47
2022-10-30T18:23:57.873Z,101142.69
2022-10-30T18:26:26.921Z,101136.56
2022-10-30T18:28:54.209Z,101142.78
2022-10-30T18:31:23.279Z,101141.88
2022-10-30T18:33:49.741Z,101149.75
2022-10-30T18:36:21.734Z,101149.88
2022-10-30T18:38:48.875Z,101158.91
2022-10-30T18:41:19.322Z,101162.63
2022-10-30T18:43:47.254Z,101171.41
2022-10-30T18:46:15.306Z,101168.66
2022-10-30T18:48:41.987Z,101162.41
2022-10-30T18:51:19.203Z,101164.34
2022-10-30T18:53:51.655Z,101167.81
2022-10-30T18:56:29.569Z,101175.03
2022-10-30T18:59:01.810Z,101174.19
2022-10-30T19:01:32.059Z,101177.69
2022-10-30T19:04:00.993Z,101176.97
2022-10-30T19:06:28.032Z,101175.91
2022-10-30T19:08:54.597Z,101185.75
2022-10-30T19:11:25.133Z,101189.28
2022-10-30T19:13:53.047Z,101194.34
2022-10-30T19:16:20.417Z,101184.72
2022-10-30T19:18:47.463Z,101186.56
2022-10-30T19:21:16.464Z,101177.78
2022-10-30T19:23:42.910Z,101193.66
2022-10-30T19:28:41.031Z,101190.41
2022-10-30T19:31:12.647Z,101201.66
2022-10-30T19:33:39.114Z,101202.56
2022-10-30T19:36:05.833Z,101204.50
2022-10-30T19:38:32.888Z,101207.13
2022-10-30T19:40:59.856Z,101208.75
2022-10-30T19:43:26.329Z,101210.53
2022-10-30T19:45:56.678Z,101212.38
2022-10-30T19:48:47.817Z,101217.63
2022-10-30T19:51:11.914Z,101209.00
2022-10-30T19:53:39.762Z,101222.16
2022-10-30T19:56:07.086Z,101218.75
2022-10-30T19:58:33.602Z,101221.41
2022-10-30T20:01:00.079Z,101224.84
2022-10-30T20:03:26.598Z,101219.69
2022-10-30T20:05:54.140Z,101219.69
2022-10-30T20:08:22.865Z,101217.06
2022-10-30T20:10:52.810Z,101222.25
2022-10-30T20:13:20.599Z,101220.63
2022-10-30T20:15:47.349Z,101216.50
2022-10-30T20:18:19.134Z,101228.81
2022-10-30T20:21:09.925Z,101239.44
2022-10-30T20:23:36.919Z,101230.81
2022-10-30T20:26:28.045Z,101235.16
2022-10-30T20:28:54.940Z,101231.91
2022-10-30T20:31:21.931Z,101231.84
2022-10-30T20:33:48.369Z,101237.19
2022-10-30T20:36:14.939Z,101247.94
2022-10-30T20:38:41.433Z,101243.44
2022-10-30T20:41:20.974Z,101240.91
2022-10-30T20:43:47.428Z,101242.78
2022-10-30T20:46:13.859Z,101246.31
2022-10-30T20:48:40.264Z,101253.19
2022-10-30T20:51:06.761Z,101255.94
2022-10-30T20:53:34.034Z,101256.13
2022-10-30T20:56:00.471Z,101256.06
2022-10-30T20:58:27.181Z,101263.22
2022-10-30T21:00:55.562Z,101264.31
2022-10-30T21:03:22.155Z,101273.97
2022-10-30T21:05:58.496Z,101270.59
2022-10-30T21:08:26.519Z,101273.22
2022-10-30T21:10:53.114Z,101272.41
2022-10-30T21:13:19.575Z,101277.66
2022-10-30T21:15:45.976Z,101274.16
2022-10-30T21:18:13.119Z,101275.19
2022-10-30T21:20:40.992Z,101264.81
2022-10-30T21:23:08.103Z,101272.78
2022-10-30T21:25:35.622Z,101284.97
2022-10-30T21:28:02.581Z,101285.78
2022-10-30T21:30:29.357Z,101286.88
2022-10-30T21:32:55.805Z,101287.72
2022-10-30T21:35:22.285Z,101297.38
2022-10-30T21:37:48.916Z,101294.84
2022-10-30T21:40:15.386Z,101299.19
2022-10-30T21:42:41.865Z,101300.25
2022-10-30T21:45:09.096Z,101304.50
2022-10-30T21:47:35.669Z,101302.78
2022-10-30T21:50:06.028Z,101309.81
2022-10-30T21:52:36.016Z,101314.38
2022-10-30T21:55:02.508Z,101308.25
2022-10-30T21:57:29.410Z,101317.72
2022-10-30T21:59:58.725Z,101316.84
2022-10-30T22:02:28.275Z,101307.25
2022-10-30T22:04:54.791Z,101319.50
2022-10-30T22:07:21.353Z,101317.78
2022-10-30T22:09:47.742Z,101323.16
2022-10-30T22:12:17.178Z,101317.19
2022-10-30T22:14:43.590Z,101315.31
2022-10-30T22:17:10.062Z,101325.09
2022-10-30T22:19:36.464Z,101326.19
2022-10-30T22:22:02.901Z,101328.91
2022-10-30T22:24:29.315Z,101328.81
2022-10-30T22:26:55.716Z,101334.84
2022-10-30T22:29:22.137Z,101333.06
2022-10-30T22:31:49.271Z,101333.06
2022-10-30T22:34:15.683Z,101336.63
2022-10-30T22:36:42.200Z,101345.34
2022-10-30T22:39:12.520Z,101347.06
2022-10-30T22:41:39.701Z,101343.69
2022-10-30T22:44:08.741Z,101352.44
2022-10-30T22:46:35.905Z,101342.81
2022-10-30T22:49:03.030Z,101352.38
2022-10-30T22:51:32.361Z,101353.19
2022-10-30T22:54:01.236Z,101354.34
2022-10-30T22:56:31.430Z,101348.22
2022-10-30T22:59:01.069Z,101356.00
2022-10-30T23:01:32.644Z,101348.22
2022-10-30T23:04:01.625Z,101350.09
2022-10-30T23:06:29.775Z,101354.50
2022-10-30T23:08:59.207Z,101356.16
2022-10-30T23:11:26.710Z,101348.22
2022-10-30T23:13:53.494Z,101350.97
2022-10-30T23:16:22.392Z,101351.06
2022-10-30T23:18:49.800Z,101350.19
2022-10-30T23:21:19.045Z,101356.38
2022-10-30T23:23:46.087Z,101359.88
2022-10-30T23:26:18.371Z,101359.84
2022-10-30T23:28:45.958Z,101365.84
2022-10-30T23:31:23.734Z,101361.41
2022-10-30T23:33:51.981Z,101362.16
2022-10-30T23:36:19.977Z,101359.47
2022-10-30T23:38:52.586Z,101356.75
2022-10-30T23:41:20.928Z,101355.00
2022-10-30T23:43:47.338Z,101368.19
2022-10-30T23:46:13.793Z,101367.28
2022-10-30T23:48:40.217Z,101369.06
2022-10-30T23:51:08.082Z,101364.69
2022-10-30T23:53:34.944Z,101369.16
2022-10-30T23:56:02.440Z,101365.59
2022-10-30T23:58:28.862Z,101368.56
